createdAt,value
2017-12-14T00:00:59.545Z,7.10
2017-12-14T00:03:26.542Z,7.00
2017-12-14T00:05:53.537Z,7.00
2017-12-14T00:08:20.547Z,7.10
2017-12-14T00:10:47.540Z,7.10
2017-12-14T00:13:15.306Z,7.00
2017-12-14T00:15:43.072Z,7.10
2017-12-14T00:18:10.065Z,7.10
2017-12-14T00:20:37.062Z,7.00
2017-12-14T00:23:04.819Z,7.10
2017-12-14T00:25:32.586Z,7.10
2017-12-14T00:28:00.351Z,7.10
2017-12-14T00:30:28.114Z,7.20
2017-12-14T00:32:55.923Z,7.20
2017-12-14T00:35:22.904Z,7.20
2017-12-14T00:37:49.913Z,7.20
2017-12-14T00:40:16.909Z,7.20
2017-12-14T00:42:44.681Z,7.20
2017-12-14T00:45:11.674Z,7.20
2017-12-14T00:47:38.672Z,7.20
2017-12-14T00:50:05.661Z,7.20
2017-12-14T00:52:32.668Z,7.20
2017-12-14T00:54:59.658Z,7.20
2017-12-14T00:57:26.662Z,7.10
2017-12-14T00:59:53.663Z,7.10
2017-12-14T01:02:20.667Z,7.10
2017-12-14T01:04:47.668Z,7.10
2017-12-14T01:07:14.668Z,7.20
2017-12-14T01:09:41.659Z,7.20
2017-12-14T01:12:08.653Z,7.10
2017-12-14T01:14:35.641Z,7.10
2017-12-14T01:17:02.642Z,7.10
2017-12-14T01:19:29.642Z,7.00
2017-12-14T01:21:56.649Z,7.10
2017-12-14T01:24:23.654Z,7.10
2017-12-14T01:26:50.646Z,7.10
2017-12-14T01:29:17.654Z,7.20
2017-12-14T01:31:44.656Z,7.20
2017-12-14T01:34:11.652Z,7.20
2017-12-14T01:36:38.640Z,7.20
2017-12-14T01:39:05.649Z,7.20
2017-12-14T01:41:32.633Z,7.30
2017-12-14T01:43:59.637Z,7.20
2017-12-14T01:46:26.632Z,7.20
2017-12-14T01:48:53.627Z,7.20
2017-12-14T01:51:20.634Z,7.30
2017-12-14T01:53:47.625Z,7.30
2017-12-14T01:56:14.618Z,7.30
2017-12-14T01:58:41.630Z,7.50
2017-12-14T02:01:08.621Z,7.40
2017-12-14T02:03:36.386Z,7.50
2017-12-14T02:06:04.144Z,7.50
2017-12-14T02:08:31.926Z,7.70
2017-12-14T02:10:58.934Z,7.70
2017-12-14T02:13:25.936Z,7.70
2017-12-14T02:15:52.933Z,7.70
2017-12-14T02:18:19.929Z,7.60
2017-12-14T02:20:46.917Z,7.60
2017-12-14T02:23:13.905Z,7.50
2017-12-14T02:25:40.905Z,7.60
2017-12-14T02:28:07.897Z,7.70
2017-12-14T02:30:34.901Z,7.60
2017-12-14T02:33:01.885Z,7.60
2017-12-14T02:35:28.885Z,7.60
2017-12-14T02:37:55.874Z,7.60
2017-12-14T02:40:22.866Z,7.50
2017-12-14T02:42:49.866Z,7.40
2017-12-14T02:45:16.877Z,7.40
2017-12-14T02:47:43.875Z,7.40
2017-12-14T02:50:10.870Z,7.40
2017-12-14T02:52:37.869Z,7.30
2017-12-14T02:55:04.872Z,7.20
2017-12-14T02:57:32.632Z,7.10
2017-12-14T02:59:59.649Z,7.10
2017-12-14T03:02:26.655Z,7.10
2017-12-14T03:04:53.649Z,7.10
2017-12-14T03:07:20.654Z,7.10
2017-12-14T03:09:47.638Z,7.10
2017-12-14T03:12:14.640Z,7.00
2017-12-14T03:14:41.631Z,7.10
2017-12-14T03:17:08.626Z,7.10
2017-12-14T03:19:35.618Z,7.10
2017-12-14T03:22:02.622Z,7.10
2017-12-14T03:24:29.614Z,7.20
2017-12-14T03:26:56.608Z,7.30
2017-12-14T03:29:23.600Z,7.40
2017-12-14T03:31:50.593Z,7.40
2017-12-14T03:34:17.590Z,7.40
2017-12-14T03:36:44.589Z,7.40
2017-12-14T03:39:11.579Z,7.40
2017-12-14T03:41:38.586Z,7.50
2017-12-14T03:44:05.568Z,7.40
2017-12-14T03:46:32.576Z,7.40
2017-12-14T03:48:59.561Z,7.50
2017-12-14T03:51:26.565Z,7.50
2017-12-14T03:53:53.553Z,7.30
2017-12-14T03:56:20.555Z,7.30
2017-12-14T03:58:47.549Z,7.30
2017-12-14T04:01:14.547Z,7.20
2017-12-14T04:03:41.541Z,7.40
2017-12-14T04:06:08.537Z,7.40
2017-12-14T04:08:41.474Z,7.40
2017-12-14T04:11:08.468Z,7.60
2017-12-14T04:13:35.465Z,7.60
2017-12-14T04:16:02.459Z,7.80
2017-12-14T04:18:29.458Z,7.70
2017-12-14T04:20:56.454Z,7.50
2017-12-14T04:23:23.451Z,7.50
2017-12-14T04:25:50.438Z,7.30
2017-12-14T04:28:17.443Z,7.30
2017-12-14T04:30:44.429Z,7.30
2017-12-14T04:33:11.429Z,7.30
2017-12-14T04:35:38.420Z,7.30
2017-12-14T04:38:05.413Z,7.00
2017-12-14T04:40:32.409Z,7.00
2017-12-14T04:42:59.407Z,6.80
2017-12-14T04:45:26.401Z,6.70
2017-12-14T04:47:53.398Z,6.60
2017-12-14T04:50:20.392Z,6.60
2017-12-14T04:52:47.390Z,6.50
2017-12-14T04:55:14.405Z,6.40
2017-12-14T04:57:41.393Z,6.50
2017-12-14T05:00:08.402Z,6.40
2017-12-14T05:02:35.389Z,6.30
2017-12-14T05:05:03.145Z,6.20
2017-12-14T05:07:30.150Z,6.20
2017-12-14T05:09:57.141Z,6.20
2017-12-14T05:12:24.142Z,6.20
2017-12-14T05:14:51.138Z,6.10
2017-12-14T05:17:18.149Z,6.20
2017-12-14T05:19:45.149Z,6.20
2017-12-14T05:22:12.916Z,6.10
2017-12-14T05:24:40.688Z,6.00
2017-12-14T05:27:08.453Z,5.80
2017-12-14T05:29:35.449Z,5.90
2017-12-14T05:32:02.438Z,5.70
2017-12-14T05:34:30.201Z,5.50
2017-12-14T05:36:57.951Z,5.40
2017-12-14T05:39:25.731Z,5.40
2017-12-14T05:41:53.491Z,5.40
2017-12-14T05:44:21.258Z,5.40
2017-12-14T05:46:49.011Z,5.40
2017-12-14T05:49:16.783Z,5.50
2017-12-14T05:51:44.530Z,5.50
2017-12-14T05:54:11.525Z,5.50
2017-12-14T05:56:38.539Z,5.60
2017-12-14T05:59:06.282Z,5.60
2017-12-14T06:01:33.285Z,5.60
2017-12-14T06:04:00.282Z,5.60
2017-12-14T06:06:27.273Z,5.70
2017-12-14T06:08:54.315Z,5.70
2017-12-14T06:11:22.033Z,5.50
2017-12-14T06:13:49.790Z,5.50
2017-12-14T06:16:16.789Z,5.50
2017-12-14T06:18:43.782Z,5.50
2017-12-14T06:21:10.793Z,5.50
2017-12-14T06:23:37.782Z,5.50
2017-12-14T06:26:04.783Z,5.50
2017-12-14T06:28:31.774Z,5.50
2017-12-14T06:30:59.545Z,5.40
2017-12-14T06:33:27.308Z,5.30
2017-12-14T06:35:55.073Z,5.20
2017-12-14T06:38:22.838Z,5.20
2017-12-14T06:40:50.601Z,5.20
2017-12-14T06:43:18.358Z,5.20
2017-12-14T06:45:46.126Z,5.10
2017-12-14T06:48:13.870Z,5.10
2017-12-14T06:50:40.881Z,5.10
2017-12-14T06:53:07.873Z,5.10
2017-12-14T06:55:34.869Z,5.10
2017-12-14T06:58:01.869Z,5.00
2017-12-14T07:00:28.873Z,5.00
2017-12-14T07:03:01.621Z,4.90
2017-12-14T07:05:28.626Z,5.00
2017-12-14T07:07:55.619Z,5.00
2017-12-14T07:10:22.654Z,4.90
2017-12-14T07:12:49.605Z,5.00
2017-12-14T07:15:16.605Z,5.00
2017-12-14T07:17:43.618Z,5.00
2017-12-14T07:20:10.610Z,5.10
2017-12-14T07:22:37.614Z,5.00
2017-12-14T07:25:04.610Z,5.00
2017-12-14T07:27:31.609Z,5.00
2017-12-14T07:29:58.600Z,5.10
2017-12-14T07:32:25.625Z,5.10
2017-12-14T07:34:53.199Z,5.10
2017-12-14T07:37:20.538Z,5.00
2017-12-14T07:39:48.158Z,5.20
2017-12-14T07:42:21.753Z,5.20
2017-12-14T07:44:48.745Z,5.20
2017-12-14T07:47:21.628Z,5.10
2017-12-14T07:49:48.621Z,5.30
2017-12-14T07:52:15.626Z,5.30
2017-12-14T07:54:43.381Z,5.40
2017-12-14T07:57:11.145Z,5.50
2017-12-14T07:59:38.905Z,5.60
2017-12-14T08:02:05.901Z,5.60
2017-12-14T08:04:32.899Z,5.70
2017-12-14T08:06:59.907Z,5.80
2017-12-14T08:09:26.913Z,5.80
2017-12-14T08:11:53.917Z,5.80
2017-12-14T08:14:20.926Z,5.70
2017-12-14T08:16:47.918Z,5.80
2017-12-14T08:19:14.909Z,5.90
2017-12-14T08:21:41.907Z,5.90
2017-12-14T08:24:08.902Z,5.80
2017-12-14T08:26:35.894Z,5.80
2017-12-14T08:29:02.889Z,5.80
2017-12-14T08:31:29.882Z,5.90
2017-12-14T08:33:56.886Z,6.00
2017-12-14T08:42:16.609Z,5.90
2017-12-14T08:44:43.609Z,5.90
2017-12-14T08:47:10.703Z,5.90
2017-12-14T08:52:11.202Z,5.90
2017-12-14T08:54:38.249Z,5.90
2017-12-14T08:57:05.469Z,5.90
2017-12-14T08:59:32.508Z,6.00
2017-12-14T09:01:59.528Z,6.10
2017-12-14T09:07:23.762Z,6.20
2017-12-14T09:09:50.796Z,6.30
2017-12-14T09:12:17.827Z,6.40
2017-12-14T09:14:44.863Z,6.50
2017-12-14T09:17:11.863Z,6.60
2017-12-14T09:22:35.100Z,6.80
2017-12-14T09:25:02.118Z,6.90
2017-12-14T09:27:29.130Z,7.20
2017-12-14T09:29:56.139Z,7.50
2017-12-14T09:32:23.157Z,7.80
2017-12-14T09:34:50.161Z,8.40
2017-12-14T09:37:17.351Z,8.20
2017-12-14T09:42:41.059Z,9.20
2017-12-14T09:45:08.841Z,9.20
2017-12-14T09:47:35.830Z,9.20
2017-12-14T09:53:00.564Z,9.70
2017-12-14T09:55:27.556Z,9.60
2017-12-14T10:00:51.730Z,9.40
2017-12-14T10:03:18.733Z,9.50
2017-12-14T10:05:45.722Z,9.70
2017-12-14T10:08:12.740Z,10.00
2017-12-14T10:10:39.795Z,9.90
2017-12-14T10:13:06.784Z,8.50
2017-12-14T10:15:33.807Z,10.20
2017-12-14T10:18:00.851Z,10.10
2017-12-14T10:29:15.825Z,10.50
2017-12-14T10:31:42.827Z,10.20
2017-12-14T10:34:09.845Z,10.50
2017-12-14T10:36:36.851Z,10.10
2017-12-14T10:39:03.868Z,9.50
2017-12-14T10:41:30.880Z,10.00
2017-12-14T10:43:57.877Z,9.30
2017-12-14T10:46:24.873Z,9.70
2017-12-14T10:48:51.877Z,10.00
2017-12-14T10:51:18.886Z,9.70
2017-12-14T10:53:45.892Z,10.10
2017-12-14T10:56:12.882Z,9.60
2017-12-14T10:58:39.895Z,9.40
2017-12-14T11:01:12.599Z,9.30
2017-12-14T11:03:39.607Z,9.00
2017-12-14T11:06:06.620Z,9.50
2017-12-14T11:08:33.637Z,9.70
2017-12-14T11:11:00.634Z,10.10
2017-12-14T11:13:27.639Z,10.30
2017-12-14T11:15:54.643Z,10.30
2017-12-14T11:18:21.639Z,11.10
2017-12-14T11:20:48.643Z,10.30
2017-12-14T11:23:15.643Z,10.60
2017-12-14T11:25:42.653Z,10.80
2017-12-14T11:28:09.651Z,11.20
2017-12-14T11:30:36.662Z,10.90
2017-12-14T11:33:03.669Z,11.00
2017-12-14T11:35:30.669Z,10.80
2017-12-14T11:37:57.682Z,10.40
2017-12-14T11:40:24.682Z,10.70
2017-12-14T11:42:51.685Z,10.20
2017-12-14T11:45:18.686Z,10.30
2017-12-14T11:47:45.688Z,10.40
2017-12-14T11:50:12.703Z,9.70
2017-12-14T11:52:39.689Z,9.50
2017-12-14T11:55:06.682Z,9.00
2017-12-14T11:57:33.678Z,8.70
2017-12-14T12:00:00.669Z,8.50
2017-12-14T12:02:27.669Z,8.50
2017-12-14T12:04:54.658Z,8.80
2017-12-14T12:07:21.658Z,9.10
2017-12-14T12:09:48.650Z,9.40
2017-12-14T12:12:15.648Z,9.00
2017-12-14T12:14:42.643Z,8.50
2017-12-14T12:17:09.684Z,8.60
2017-12-14T12:22:32.841Z,9.50
2017-12-14T12:24:59.843Z,9.20
2017-12-14T12:27:30.376Z,8.30
2017-12-14T12:32:54.314Z,8.20
2017-12-14T12:35:21.355Z,8.20
2017-12-14T12:37:48.355Z,8.20
2017-12-14T12:40:15.411Z,8.10
2017-12-14T12:42:42.432Z,8.20
2017-12-14T12:45:09.483Z,8.40
2017-12-14T12:47:36.484Z,8.50
2017-12-14T12:50:03.551Z,8.50
2017-12-14T12:52:30.547Z,8.40
2017-12-14T12:54:57.551Z,8.40
2017-12-14T12:57:24.546Z,8.40
2017-12-14T12:59:51.553Z,8.50
2017-12-14T13:02:18.563Z,8.40
2017-12-14T13:04:45.566Z,8.40
2017-12-14T13:07:12.565Z,8.40
2017-12-14T13:09:39.562Z,8.60
2017-12-14T13:12:06.625Z,8.70
2017-12-14T13:14:33.633Z,8.60
2017-12-14T13:17:00.624Z,8.70
2017-12-14T13:19:27.670Z,8.80
2017-12-14T13:21:54.761Z,8.60
2017-12-14T13:24:21.758Z,8.70
2017-12-14T13:26:49.552Z,8.70
2017-12-14T13:29:16.558Z,8.60
2017-12-14T13:31:43.559Z,8.70
2017-12-14T13:34:10.615Z,8.50
2017-12-14T13:36:37.662Z,8.50
2017-12-14T13:39:04.655Z,8.60
2017-12-14T13:41:31.651Z,8.50
2017-12-14T13:43:58.651Z,8.60
2017-12-14T13:46:26.406Z,8.60
2017-12-14T13:48:53.438Z,8.60
2017-12-14T13:51:20.520Z,8.10
2017-12-14T13:53:47.567Z,8.10
2017-12-14T13:56:14.614Z,8.30
2017-12-14T13:58:41.569Z,8.20
2017-12-14T14:01:08.568Z,8.20
2017-12-14T14:03:35.570Z,8.00
2017-12-14T14:06:02.679Z,7.90
2017-12-14T14:08:29.739Z,7.90
2017-12-14T14:10:57.544Z,7.90
2017-12-14T14:13:24.575Z,7.90
2017-12-14T14:15:51.619Z,7.90
2017-12-14T14:18:18.578Z,7.80
2017-12-14T14:20:45.616Z,7.70
2017-12-14T14:23:12.601Z,7.70
2017-12-14T14:25:39.631Z,7.60
2017-12-14T14:28:06.680Z,7.60
2017-12-14T14:30:33.672Z,7.60
2017-12-14T14:33:00.678Z,7.50
2017-12-14T14:35:27.727Z,7.50
2017-12-14T14:37:54.717Z,7.30
2017-12-14T14:40:21.753Z,7.30
2017-12-14T14:42:48.764Z,7.40
2017-12-14T14:45:15.811Z,7.30
2017-12-14T14:47:42.807Z,7.30
2017-12-14T14:50:09.821Z,7.30
2017-12-14T14:52:36.877Z,7.20
2017-12-14T14:55:03.944Z,7.20
2017-12-14T14:57:30.949Z,7.10
2017-12-14T14:59:57.955Z,7.10
2017-12-14T15:02:24.956Z,7.00
2017-12-14T15:04:52.000Z,7.00
2017-12-14T15:07:19.015Z,7.00
2017-12-14T15:09:46.019Z,6.90
2017-12-14T15:12:13.111Z,6.90
2017-12-14T15:14:40.253Z,7.00
2017-12-14T15:17:07.244Z,9.50
2017-12-14T15:19:34.269Z,6.90
2017-12-14T15:22:01.302Z,6.90
2017-12-14T15:24:28.299Z,6.90
2017-12-14T15:26:55.495Z,6.80
2017-12-14T15:29:22.510Z,6.80
2017-12-14T15:31:49.509Z,6.80
2017-12-14T15:34:16.501Z,6.90
2017-12-14T15:36:43.494Z,6.90
2017-12-14T15:39:10.494Z,6.90
2017-12-14T15:41:37.486Z,6.90
2017-12-14T15:44:04.480Z,6.80
2017-12-14T15:46:31.478Z,6.90
2017-12-14T15:48:58.478Z,6.90
2017-12-14T15:51:25.473Z,6.80
2017-12-14T15:53:52.467Z,6.80
2017-12-14T15:56:19.470Z,6.80
2017-12-14T15:58:46.454Z,6.90
2017-12-14T16:01:13.453Z,6.80
2017-12-14T16:03:40.448Z,6.70
2017-12-14T16:06:07.441Z,6.80
2017-12-14T16:08:34.436Z,6.80
2017-12-14T16:11:01.433Z,6.80
2017-12-14T16:13:28.429Z,6.80
2017-12-14T16:15:55.417Z,6.80
2017-12-14T16:18:22.419Z,6.80
2017-12-14T16:20:49.431Z,6.70
2017-12-14T16:23:16.414Z,6.70
2017-12-14T16:25:43.466Z,6.60
2017-12-14T16:28:11.261Z,6.60
2017-12-14T16:30:39.020Z,6.60
2017-12-14T16:33:06.037Z,6.50
2017-12-14T16:35:33.050Z,6.60
2017-12-14T16:38:00.029Z,6.50
2017-12-14T16:40:27.021Z,6.50
2017-12-14T16:42:54.025Z,6.60
2017-12-14T16:45:21.018Z,6.50
2017-12-14T16:47:48.013Z,6.50
2017-12-14T16:50:15.005Z,6.40
2017-12-14T16:52:42.005Z,6.20
2017-12-14T16:55:09.906Z,6.20
2017-12-14T16:57:37.665Z,6.10
2017-12-14T17:00:05.425Z,6.10
2017-12-14T17:02:33.196Z,6.00
2017-12-14T17:05:00.198Z,6.00
2017-12-14T17:07:27.188Z,6.10
2017-12-14T17:09:54.202Z,6.10
2017-12-14T17:12:21.203Z,6.10
2017-12-14T17:14:48.200Z,6.20
2017-12-14T17:17:15.189Z,6.20
2017-12-14T17:19:42.185Z,6.10
2017-12-14T17:22:09.173Z,6.20
2017-12-14T17:24:36.181Z,6.30
2017-12-14T17:27:03.170Z,6.30
2017-12-14T17:29:30.165Z,6.20
2017-12-14T17:31:57.157Z,6.30
2017-12-14T17:34:24.163Z,6.20
2017-12-14T17:36:51.159Z,6.20
2017-12-14T17:39:18.159Z,6.30
2017-12-14T17:41:45.174Z,6.30
2017-12-14T17:44:12.161Z,6.30
2017-12-14T17:46:39.163Z,6.30
2017-12-14T17:49:06.154Z,6.30
2017-12-14T17:51:33.904Z,6.40
2017-12-14T17:54:00.915Z,6.40
2017-12-14T17:56:27.902Z,6.40
2017-12-14T17:58:54.910Z,6.40
2017-12-14T18:01:21.897Z,6.50
2017-12-14T18:03:48.893Z,6.60
2017-12-14T18:06:15.891Z,6.60
2017-12-14T18:08:42.893Z,6.60
2017-12-14T18:11:09.882Z,6.70
2017-12-14T18:13:36.930Z,6.70
2017-12-14T18:16:03.941Z,6.60
2017-12-14T18:18:30.925Z,6.60
2017-12-14T18:20:58.689Z,6.70
2017-12-14T18:23:26.446Z,6.80
2017-12-14T18:25:53.458Z,6.70
2017-12-14T18:28:20.449Z,6.70
2017-12-14T18:30:47.449Z,6.80
2017-12-14T18:33:14.439Z,6.80
2017-12-14T18:35:41.440Z,6.90
2017-12-14T18:38:08.429Z,6.80
2017-12-14T18:40:35.443Z,6.80
2017-12-14T18:43:02.421Z,6.80
2017-12-14T18:45:29.422Z,6.80
2017-12-14T18:47:56.418Z,6.70
2017-12-14T18:50:23.409Z,6.70
2017-12-14T18:52:50.402Z,6.70
2017-12-14T18:55:17.417Z,6.70
2017-12-14T18:57:44.409Z,6.70
2017-12-14T19:00:11.393Z,6.60
2017-12-14T19:02:38.404Z,6.60
2017-12-14T19:05:05.391Z,6.60
2017-12-14T19:07:32.422Z,6.60
2017-12-14T19:09:59.408Z,6.60
2017-12-14T19:12:27.168Z,6.50
2017-12-14T19:14:54.152Z,6.50
2017-12-14T19:17:21.145Z,6.60
2017-12-14T19:19:48.141Z,6.60
2017-12-14T19:22:15.157Z,6.50
2017-12-14T19:24:42.915Z,6.50
2017-12-14T19:27:09.938Z,6.40
2017-12-14T19:29:36.942Z,6.40
2017-12-14T19:32:03.991Z,6.40
2017-12-14T19:34:30.981Z,6.40
2017-12-14T19:36:58.864Z,6.40
2017-12-14T19:39:26.632Z,6.30
2017-12-14T19:41:54.389Z,6.40
2017-12-14T19:44:21.390Z,6.30
2017-12-14T19:46:48.428Z,6.40
2017-12-14T19:49:15.437Z,6.30
2017-12-14T19:51:42.496Z,6.20
2017-12-14T19:54:09.529Z,6.30
2017-12-14T19:56:36.619Z,6.30
2017-12-14T19:59:03.848Z,6.40
2017-12-14T20:01:31.761Z,6.40
2017-12-14T20:03:58.772Z,6.40
2017-12-14T20:06:25.765Z,6.50
2017-12-14T20:08:52.782Z,6.60
2017-12-14T20:11:19.824Z,6.50
2017-12-14T20:13:46.826Z,6.60
2017-12-14T20:16:13.838Z,6.50
2017-12-14T20:18:40.835Z,6.50
2017-12-14T20:21:07.872Z,6.50
2017-12-14T20:23:35.828Z,6.40
2017-12-14T20:26:02.901Z,6.40
2017-12-14T20:28:29.969Z,6.50
2017-12-14T20:30:57.004Z,6.50
2017-12-14T20:33:24.047Z,6.50
2017-12-14T20:35:51.060Z,6.60
2017-12-14T20:38:18.813Z,6.60
2017-12-14T20:40:45.860Z,6.60
2017-12-14T20:43:12.867Z,6.50
2017-12-14T20:45:41.185Z,6.50
2017-12-14T20:48:08.941Z,6.50
2017-12-14T20:50:35.926Z,6.50
2017-12-14T20:53:02.990Z,6.50
2017-12-14T20:55:30.012Z,6.50
2017-12-14T20:57:57.057Z,6.50
2017-12-14T21:00:24.059Z,6.50
2017-12-14T21:02:51.073Z,6.60
2017-12-14T21:05:18.127Z,6.50
2017-12-14T21:07:45.120Z,6.50
2017-12-14T21:10:12.937Z,6.50
2017-12-14T21:12:39.965Z,6.40
2017-12-14T21:15:06.953Z,6.40
2017-12-14T21:17:33.936Z,6.30
2017-12-14T21:20:00.996Z,6.20
2017-12-14T21:22:28.047Z,6.20
2017-12-14T21:24:55.037Z,6.10
2017-12-14T21:27:22.030Z,6.10
2017-12-14T21:29:49.025Z,6.10
2017-12-14T21:32:16.063Z,6.10
2017-12-14T21:34:43.070Z,6.10
2017-12-14T21:37:10.104Z,6.00
2017-12-14T21:39:37.148Z,6.10
2017-12-14T21:42:04.137Z,6.00
2017-12-14T21:44:31.125Z,6.00
2017-12-14T21:46:58.127Z,6.00
2017-12-14T21:49:25.113Z,6.00
2017-12-14T21:51:52.932Z,6.00
2017-12-14T21:54:19.912Z,5.90
2017-12-14T21:56:47.677Z,6.00
2017-12-14T21:59:14.666Z,6.00
2017-12-14T22:01:41.662Z,6.10
2017-12-14T22:04:08.695Z,6.10
2017-12-14T22:06:35.681Z,6.00
2017-12-14T22:09:02.708Z,6.00
2017-12-14T22:11:29.706Z,6.00
2017-12-14T22:13:57.378Z,6.00
2017-12-14T22:16:25.041Z,5.90
2017-12-14T22:18:52.376Z,6.00
2017-12-14T22:21:19.716Z,6.00
2017-12-14T22:23:46.800Z,5.90
2017-12-14T22:26:13.933Z,5.90
2017-12-14T22:28:42.710Z,5.80
2017-12-14T22:31:09.738Z,5.80
2017-12-14T22:33:36.777Z,5.80
2017-12-14T22:36:03.820Z,5.80
2017-12-14T22:38:30.805Z,5.70
2017-12-14T22:40:57.797Z,5.70
2017-12-14T22:43:24.845Z,5.60
2017-12-14T22:45:51.966Z,5.60
2017-12-14T22:48:18.997Z,5.60
2017-12-14T22:50:46.031Z,5.60
2017-12-14T22:53:13.065Z,5.50
2017-12-14T22:55:40.096Z,5.50
2017-12-14T22:58:07.094Z,5.60
2017-12-14T23:00:34.077Z,5.60
2017-12-14T23:03:01.101Z,5.60
2017-12-14T23:05:28.094Z,5.60
2017-12-14T23:07:55.101Z,5.70
2017-12-14T23:10:22.856Z,5.80
2017-12-14T23:12:50.619Z,5.80
2017-12-14T23:15:17.612Z,5.80
2017-12-14T23:17:44.609Z,5.80
2017-12-14T23:20:11.617Z,5.80
2017-12-14T23:22:38.614Z,5.70
2017-12-14T23:25:06.377Z,5.90
2017-12-14T23:27:33.369Z,5.80
2017-12-14T23:30:00.362Z,5.80
2017-12-14T23:32:27.356Z,5.80
2017-12-14T23:34:54.356Z,5.80
2017-12-14T23:37:22.116Z,5.90
2017-12-14T23:39:49.116Z,5.90
2017-12-14T23:42:16.100Z,5.80
2017-12-14T23:44:43.877Z,5.70
2017-12-14T23:47:10.877Z,5.70
2017-12-14T23:49:37.870Z,5.60
2017-12-14T23:52:04.861Z,5.60
2017-12-14T23:54:31.874Z,5.60
2017-12-14T23:56:58.872Z,5.60
2017-12-14T23:59:25.866Z,5.50
